sensor_id;sensor_type;location;lat;lon;timestamp;temperature;humidity
947;DHT22;460;48.734;9.152;2023-09-07T00:00:11;15.60;98.20
947;DHT22;460;48.734;9.152;2023-09-07T00:02:39;15.70;98.00
947;DHT22;460;48.734;9.152;2023-09-07T00:05:07;15.70;98.00
947;DHT22;460;48.734;9.152;2023-09-07T00:07:34;15.60;98.10
947;DHT22;460;48.734;9.152;2023-09-07T00:10:02;15.60;98.60
947;DHT22;460;48.734;9.152;2023-09-07T00:12:30;15.60;98.70
947;DHT22;460;48.734;9.152;2023-09-07T00:14:57;15.60;98.90
947;DHT22;460;48.734;9.152;2023-09-07T00:17:25;15.50;99.30
947;DHT22;460;48.734;9.152;2023-09-07T00:19:53;15.60;98.90
947;DHT22;460;48.734;9.152;2023-09-07T00:22:22;15.50;99.40
947;DHT22;460;48.734;9.152;2023-09-07T00:24:49;15.50;99.30
947;DHT22;460;48.734;9.152;2023-09-07T00:27:16;15.50;99.40
947;DHT22;460;48.734;9.152;2023-09-07T00:29:42;15.50;99.50
947;DHT22;460;48.734;9.152;2023-09-07T00:32:09;15.40;99.20
947;DHT22;460;48.734;9.152;2023-09-07T00:34:35;15.40;99.40
947;DHT22;460;48.734;9.152;2023-09-07T00:37:03;15.40;99.30
947;DHT22;460;48.734;9.152;2023-09-07T00:39:30;15.40;99.70
947;DHT22;460;48.734;9.152;2023-09-07T00:41:57;15.30;99.70
947;DHT22;460;48.734;9.152;2023-09-07T00:44:24;15.30;99.50
947;DHT22;460;48.734;9.152;2023-09-07T00:46:50;15.30;98.80
947;DHT22;460;48.734;9.152;2023-09-07T00:49:17;15.30;99.00
947;DHT22;460;48.734;9.152;2023-09-07T00:51:44;15.30;98.80
947;DHT22;460;48.734;9.152;2023-09-07T00:54:13;15.30;98.90
947;DHT22;460;48.734;9.152;2023-09-07T00:56:40;15.30;98.80
947;DHT22;460;48.734;9.152;2023-09-07T00:59:07;15.20;98.70
947;DHT22;460;48.734;9.152;2023-09-07T01:01:35;15.20;98.80
947;DHT22;460;48.734;9.152;2023-09-07T01:04:02;15.20;98.50
947;DHT22;460;48.734;9.152;2023-09-07T01:06:30;15.20;99.10
947;DHT22;460;48.734;9.152;2023-09-07T01:09:03;15.20;99.40
947;DHT22;460;48.734;9.152;2023-09-07T01:11:37;15.20;99.40
947;DHT22;460;48.734;9.152;2023-09-07T01:14:06;15.20;99.70
947;DHT22;460;48.734;9.152;2023-09-07T01:16:33;15.20;99.90
947;DHT22;460;48.734;9.152;2023-09-07T01:19:02;15.10;99.90
947;DHT22;460;48.734;9.152;2023-09-07T01:21:34;15.10;99.90
947;DHT22;460;48.734;9.152;2023-09-07T01:24:05;15.10;99.90
947;DHT22;460;48.734;9.152;2023-09-07T01:26:34;15.10;99.60
947;DHT22;460;48.734;9.152;2023-09-07T01:29:02;15.10;99.30
947;DHT22;460;48.734;9.152;2023-09-07T01:31:30;15.10;99.30
947;DHT22;460;48.734;9.152;2023-09-07T01:33:58;15.10;99.40
947;DHT22;460;48.734;9.152;2023-09-07T01:36:26;15.00;99.40
947;DHT22;460;48.734;9.152;2023-09-07T01:38:55;15.00;99.60
947;DHT22;460;48.734;9.152;2023-09-07T01:41:23;15.00;99.60
947;DHT22;460;48.734;9.152;2023-09-07T01:43:51;15.00;99.90
947;DHT22;460;48.734;9.152;2023-09-07T01:46:18;15.00;99.90
947;DHT22;460;48.734;9.152;2023-09-07T01:48:46;14.90;99.90
947;DHT22;460;48.734;9.152;2023-09-07T01:51:13;14.90;99.90
947;DHT22;460;48.734;9.152;2023-09-07T01:53:40;15.00;99.90
947;DHT22;460;48.734;9.152;2023-09-07T01:56:08;14.90;99.90
947;DHT22;460;48.734;9.152;2023-09-07T01:58:35;14.90;99.90
947;DHT22;460;48.734;9.152;2023-09-07T02:01:02;14.90;99.90
947;DHT22;460;48.734;9.152;2023-09-07T02:03:29;14.90;99.90
947;DHT22;460;48.734;9.152;2023-09-07T02:05:56;14.90;99.80
947;DHT22;460;48.734;9.152;2023-09-07T02:08:23;14.90;99.60
947;DHT22;460;48.734;9.152;2023-09-07T02:10:50;14.90;99.70
947;DHT22;460;48.734;9.152;2023-09-07T02:13:18;14.80;99.80
947;DHT22;460;48.734;9.152;2023-09-07T02:15:46;14.80;99.80
947;DHT22;460;48.734;9.152;2023-09-07T02:18:13;14.80;99.90
947;DHT22;460;48.734;9.152;2023-09-07T02:20:41;14.80;99.90
947;DHT22;460;48.734;9.152;2023-09-07T02:23:09;14.80;99.90
947;DHT22;460;48.734;9.152;2023-09-07T02:25:36;14.70;99.90
947;DHT22;460;48.734;9.152;2023-09-07T02:28:04;14.80;99.90
947;DHT22;460;48.734;9.152;2023-09-07T02:30:34;14.80;99.90
947;DHT22;460;48.734;9.152;2023-09-07T02:33:02;14.70;99.90
947;DHT22;460;48.734;9.152;2023-09-07T02:35:30;14.70;99.90
947;DHT22;460;48.734;9.152;2023-09-07T02:37:58;14.70;99.90
947;DHT22;460;48.734;9.152;2023-09-07T02:40:26;14.70;99.90
947;DHT22;460;48.734;9.152;2023-09-07T02:42:53;14.70;99.90
947;DHT22;460;48.734;9.152;2023-09-07T02:45:21;14.70;99.90
947;DHT22;460;48.734;9.152;2023-09-07T02:47:49;14.60;99.90
947;DHT22;460;48.734;9.152;2023-09-07T02:50:17;14.60;99.90
947;DHT22;460;48.734;9.152;2023-09-07T02:52:44;14.60;99.90
947;DHT22;460;48.734;9.152;2023-09-07T02:55:11;14.50;99.90
947;DHT22;460;48.734;9.152;2023-09-07T02:57:38;14.40;99.90
947;DHT22;460;48.734;9.152;2023-09-07T03:00:06;14.40;99.90
947;DHT22;460;48.734;9.152;2023-09-07T03:02:36;14.40;99.90
947;DHT22;460;48.734;9.152;2023-09-07T03:05:05;14.40;99.90
947;DHT22;460;48.734;9.152;2023-09-07T03:07:33;14.40;99.90
947;DHT22;460;48.734;9.152;2023-09-07T03:10:00;14.30;99.90
947;DHT22;460;48.734;9.152;2023-09-07T03:12:28;14.30;99.90
947;DHT22;460;48.734;9.152;2023-09-07T03:14:54;14.40;99.90
947;DHT22;460;48.734;9.152;2023-09-07T03:17:21;14.30;99.90
947;DHT22;460;48.734;9.152;2023-09-07T03:19:48;14.30;99.90
947;DHT22;460;48.734;9.152;2023-09-07T03:22:16;14.30;99.90
947;DHT22;460;48.734;9.152;2023-09-07T03:24:43;14.30;99.90
947;DHT22;460;48.734;9.152;2023-09-07T03:27:10;14.20;99.90
947;DHT22;460;48.734;9.152;2023-09-07T03:29:37;14.20;99.90
947;DHT22;460;48.734;9.152;2023-09-07T03:32:05;14.10;99.90
947;DHT22;460;48.734;9.152;2023-09-07T03:34:32;14.20;99.90
947;DHT22;460;48.734;9.152;2023-09-07T03:36:58;14.10;99.90
947;DHT22;460;48.734;9.152;2023-09-07T03:39:27;14.10;99.90
947;DHT22;460;48.734;9.152;2023-09-07T03:41:54;14.10;99.90
947;DHT22;460;48.734;9.152;2023-09-07T03:44:20;14.10;99.90
947;DHT22;460;48.734;9.152;2023-09-07T03:46:47;14.10;99.90
947;DHT22;460;48.734;9.152;2023-09-07T03:49:14;13.90;99.90
947;DHT22;460;48.734;9.152;2023-09-07T03:51:41;14.00;99.90
947;DHT22;460;48.734;9.152;2023-09-07T03:54:07;14.00;99.90
947;DHT22;460;48.734;9.152;2023-09-07T03:56:35;14.00;99.90
947;DHT22;460;48.734;9.152;2023-09-07T03:59:02;14.00;99.90
947;DHT22;460;48.734;9.152;2023-09-07T04:01:29;14.00;99.90
947;DHT22;460;48.734;9.152;2023-09-07T04:03:56;13.90;99.90
947;DHT22;460;48.734;9.152;2023-09-07T04:06:23;13.90;99.90
947;DHT22;460;48.734;9.152;2023-09-07T04:08:50;13.90;99.90
947;DHT22;460;48.734;9.152;2023-09-07T04:11:17;13.80;99.90
947;DHT22;460;48.734;9.152;2023-09-07T04:13:45;13.80;99.90
947;DHT22;460;48.734;9.152;2023-09-07T04:16:11;13.70;99.90
947;DHT22;460;48.734;9.152;2023-09-07T04:18:38;13.70;99.90
947;DHT22;460;48.734;9.152;2023-09-07T04:21:05;13.70;99.90
947;DHT22;460;48.734;9.152;2023-09-07T04:23:32;13.60;99.90
947;DHT22;460;48.734;9.152;2023-09-07T04:26:10;13.60;99.90
947;DHT22;460;48.734;9.152;2023-09-07T04:28:38;13.60;99.90
947;DHT22;460;48.734;9.152;2023-09-07T04:31:06;13.60;99.90
947;DHT22;460;48.734;9.152;2023-09-07T04:33:33;13.70;99.90
947;DHT22;460;48.734;9.152;2023-09-07T04:36:09;13.60;99.90
947;DHT22;460;48.734;9.152;2023-09-07T04:38:36;13.60;99.90
947;DHT22;460;48.734;9.152;2023-09-07T04:41:07;13.60;99.90
947;DHT22;460;48.734;9.152;2023-09-07T04:43:34;13.60;99.90
947;DHT22;460;48.734;9.152;2023-09-07T04:46:01;13.60;99.90
947;DHT22;460;48.734;9.152;2023-09-07T04:48:29;13.50;99.90
947;DHT22;460;48.734;9.152;2023-09-07T04:50:59;13.60;99.90
947;DHT22;460;48.734;9.152;2023-09-07T04:53:28;13.70;99.90
947;DHT22;460;48.734;9.152;2023-09-07T04:55:56;13.70;99.90
947;DHT22;460;48.734;9.152;2023-09-07T04:58:23;13.80;99.90
947;DHT22;460;48.734;9.152;2023-09-07T05:00:49;13.70;99.90
947;DHT22;460;48.734;9.152;2023-09-07T05:03:16;13.70;99.90
947;DHT22;460;48.734;9.152;2023-09-07T05:05:45;13.60;99.90
947;DHT22;460;48.734;9.152;2023-09-07T05:08:17;13.60;99.90
947;DHT22;460;48.734;9.152;2023-09-07T05:10:44;13.60;99.90
947;DHT22;460;48.734;9.152;2023-09-07T05:13:11;13.60;99.90
947;DHT22;460;48.734;9.152;2023-09-07T05:15:47;13.50;99.90
947;DHT22;460;48.734;9.152;2023-09-07T05:18:14;13.60;99.90
947;DHT22;460;48.734;9.152;2023-09-07T05:20:40;13.60;99.90
947;DHT22;460;48.734;9.152;2023-09-07T05:23:08;13.70;99.90
947;DHT22;460;48.734;9.152;2023-09-07T05:25:43;13.60;99.90
947;DHT22;460;48.734;9.152;2023-09-07T05:28:10;13.70;99.90
947;DHT22;460;48.734;9.152;2023-09-07T05:30:36;13.60;99.90
947;DHT22;460;48.734;9.152;2023-09-07T05:33:03;13.70;99.90
947;DHT22;460;48.734;9.152;2023-09-07T05:35:30;13.70;99.90
947;DHT22;460;48.734;9.152;2023-09-07T05:37:58;13.80;99.90
947;DHT22;460;48.734;9.152;2023-09-07T05:40:27;13.80;99.90
947;DHT22;460;48.734;9.152;2023-09-07T05:42:54;13.90;99.90
947;DHT22;460;48.734;9.152;2023-09-07T05:45:21;13.90;99.90
947;DHT22;460;48.734;9.152;2023-09-07T05:47:47;14.00;99.90
947;DHT22;460;48.734;9.152;2023-09-07T05:50:14;14.20;99.90
947;DHT22;460;48.734;9.152;2023-09-07T05:52:41;14.30;99.90
947;DHT22;460;48.734;9.152;2023-09-07T05:55:08;14.40;99.90
947;DHT22;460;48.734;9.152;2023-09-07T05:57:37;14.50;99.90
947;DHT22;460;48.734;9.152;2023-09-07T06:00:05;14.60;99.90
947;DHT22;460;48.734;9.152;2023-09-07T06:02:32;14.70;99.90
947;DHT22;460;48.734;9.152;2023-09-07T06:04:58;14.80;99.90
947;DHT22;460;48.734;9.152;2023-09-07T06:07:25;15.00;99.90
947;DHT22;460;48.734;9.152;2023-09-07T06:09:52;15.10;99.90
947;DHT22;460;48.734;9.152;2023-09-07T06:12:19;15.30;99.90
947;DHT22;460;48.734;9.152;2023-09-07T06:14:47;15.40;99.90
947;DHT22;460;48.734;9.152;2023-09-07T06:17:14;15.50;99.90
947;DHT22;460;48.734;9.152;2023-09-07T06:19:41;15.70;99.90
947;DHT22;460;48.734;9.152;2023-09-07T06:22:08;15.80;99.90
947;DHT22;460;48.734;9.152;2023-09-07T06:24:34;16.00;99.90
947;DHT22;460;48.734;9.152;2023-09-07T06:27:01;16.10;99.90
947;DHT22;460;48.734;9.152;2023-09-07T06:29:28;16.20;99.90
947;DHT22;460;48.734;9.152;2023-09-07T06:31:56;16.40;99.90
947;DHT22;460;48.734;9.152;2023-09-07T06:34:23;16.40;99.90
947;DHT22;460;48.734;9.152;2023-09-07T06:36:51;16.60;99.90
947;DHT22;460;48.734;9.152;2023-09-07T06:39:18;16.70;99.90
947;DHT22;460;48.734;9.152;2023-09-07T06:41:46;16.70;99.90
947;DHT22;460;48.734;9.152;2023-09-07T06:44:13;16.90;99.90
947;DHT22;460;48.734;9.152;2023-09-07T06:46:40;17.10;99.90
947;DHT22;460;48.734;9.152;2023-09-07T06:49:08;17.20;99.90
947;DHT22;460;48.734;9.152;2023-09-07T06:51:35;17.30;99.90
947;DHT22;460;48.734;9.152;2023-09-07T06:54:03;17.40;99.90
947;DHT22;460;48.734;9.152;2023-09-07T06:56:30;17.50;99.90
947;DHT22;460;48.734;9.152;2023-09-07T06:58:59;17.60;99.90
947;DHT22;460;48.734;9.152;2023-09-07T07:01:25;17.70;99.90
947;DHT22;460;48.734;9.152;2023-09-07T07:03:52;17.70;99.90
947;DHT22;460;48.734;9.152;2023-09-07T07:06:21;17.80;99.90
947;DHT22;460;48.734;9.152;2023-09-07T07:08:47;18.00;99.70
947;DHT22;460;48.734;9.152;2023-09-07T07:11:14;18.10;99.60
947;DHT22;460;48.734;9.152;2023-09-07T07:13:41;18.20;99.60
947;DHT22;460;48.734;9.152;2023-09-07T07:16:08;18.30;98.90
947;DHT22;460;48.734;9.152;2023-09-07T07:18:35;18.40;99.10
947;DHT22;460;48.734;9.152;2023-09-07T07:21:02;18.60;98.40
947;DHT22;460;48.734;9.152;2023-09-07T07:23:30;18.50;98.30
947;DHT22;460;48.734;9.152;2023-09-07T07:25:57;18.60;98.30
947;DHT22;460;48.734;9.152;2023-09-07T07:28:24;18.80;97.40
947;DHT22;460;48.734;9.152;2023-09-07T07:30:51;18.90;97.70
947;DHT22;460;48.734;9.152;2023-09-07T07:33:19;19.10;97.10
947;DHT22;460;48.734;9.152;2023-09-07T07:35:46;19.00;97.00
947;DHT22;460;48.734;9.152;2023-09-07T07:38:13;19.00;97.00
947;DHT22;460;48.734;9.152;2023-09-07T07:40:42;19.10;97.30
947;DHT22;460;48.734;9.152;2023-09-07T07:43:10;19.20;96.80
947;DHT22;460;48.734;9.152;2023-09-07T07:45:38;19.20;97.00
947;DHT22;460;48.734;9.152;2023-09-07T07:48:05;19.20;96.50
947;DHT22;460;48.734;9.152;2023-09-07T07:50:36;19.50;96.40
947;DHT22;460;48.734;9.152;2023-09-07T07:53:04;19.40;96.70
947;DHT22;460;48.734;9.152;2023-09-07T07:55:34;19.40;96.20
947;DHT22;460;48.734;9.152;2023-09-07T07:58:05;19.60;96.60
947;DHT22;460;48.734;9.152;2023-09-07T08:00:33;19.70;96.00
947;DHT22;460;48.734;9.152;2023-09-07T08:03:00;19.70;95.70
947;DHT22;460;48.734;9.152;2023-09-07T08:05:27;19.90;96.20
947;DHT22;460;48.734;9.152;2023-09-07T08:07:55;20.00;95.40
947;DHT22;460;48.734;9.152;2023-09-07T08:10:22;20.10;96.00
947;DHT22;460;48.734;9.152;2023-09-07T08:12:53;20.20;95.00
947;DHT22;460;48.734;9.152;2023-09-07T08:15:21;20.30;95.20
947;DHT22;460;48.734;9.152;2023-09-07T08:17:50;20.60;94.80
947;DHT22;460;48.734;9.152;2023-09-07T08:20:17;20.70;94.30
947;DHT22;460;48.734;9.152;2023-09-07T08:22:44;20.70;94.50
947;DHT22;460;48.734;9.152;2023-09-07T08:25:11;20.80;94.50
947;DHT22;460;48.734;9.152;2023-09-07T08:27:39;20.90;94.00
947;DHT22;460;48.734;9.152;2023-09-07T08:30:12;20.90;93.80
947;DHT22;460;48.734;9.152;2023-09-07T08:32:42;20.80;94.30
947;DHT22;460;48.734;9.152;2023-09-07T08:35:10;20.90;93.40
947;DHT22;460;48.734;9.152;2023-09-07T08:37:38;21.00;93.80
947;DHT22;460;48.734;9.152;2023-09-07T08:40:06;21.10;93.90
947;DHT22;460;48.734;9.152;2023-09-07T08:42:35;21.30;93.60
947;DHT22;460;48.734;9.152;2023-09-07T08:45:03;21.40;94.00
947;DHT22;460;48.734;9.152;2023-09-07T08:47:33;21.50;92.80
947;DHT22;460;48.734;9.152;2023-09-07T08:50:02;21.20;93.90
947;DHT22;460;48.734;9.152;2023-09-07T08:52:31;21.50;93.50
947;DHT22;460;48.734;9.152;2023-09-07T08:54:58;21.70;92.90
947;DHT22;460;48.734;9.152;2023-09-07T08:57:27;21.60;93.90
947;DHT22;460;48.734;9.152;2023-09-07T08:59:56;21.70;93.40
947;DHT22;460;48.734;9.152;2023-09-07T09:02:23;21.80;93.60
947;DHT22;460;48.734;9.152;2023-09-07T09:04:50;22.00;93.50
947;DHT22;460;48.734;9.152;2023-09-07T09:07:19;21.90;93.70
947;DHT22;460;48.734;9.152;2023-09-07T09:09:46;22.10;92.90
947;DHT22;460;48.734;9.152;2023-09-07T09:12:13;22.30;92.70
947;DHT22;460;48.734;9.152;2023-09-07T09:14:42;22.40;92.00
947;DHT22;460;48.734;9.152;2023-09-07T09:17:11;22.30;92.10
947;DHT22;460;48.734;9.152;2023-09-07T09:19:39;22.50;92.10
947;DHT22;460;48.734;9.152;2023-09-07T09:22:07;22.50;91.90
947;DHT22;460;48.734;9.152;2023-09-07T09:24:35;22.50;92.60
947;DHT22;460;48.734;9.152;2023-09-07T09:27:02;22.50;91.90
947;DHT22;460;48.734;9.152;2023-09-07T09:29:31;22.60;92.20
947;DHT22;460;48.734;9.152;2023-09-07T09:32:00;22.80;91.70
947;DHT22;460;48.734;9.152;2023-09-07T09:34:34;22.70;92.60
947;DHT22;460;48.734;9.152;2023-09-07T09:37:02;22.70;92.30
947;DHT22;460;48.734;9.152;2023-09-07T09:39:29;22.80;92.40
947;DHT22;460;48.734;9.152;2023-09-07T09:41:57;23.10;91.40
947;DHT22;460;48.734;9.152;2023-09-07T09:44:24;23.10;91.30
947;DHT22;460;48.734;9.152;2023-09-07T09:46:52;23.00;91.40
947;DHT22;460;48.734;9.152;2023-09-07T09:49:20;23.20;92.20
947;DHT22;460;48.734;9.152;2023-09-07T09:51:48;23.40;90.90
947;DHT22;460;48.734;9.152;2023-09-07T09:54:16;23.40;91.20
947;DHT22;460;48.734;9.152;2023-09-07T09:56:43;23.50;91.00
947;DHT22;460;48.734;9.152;2023-09-07T09:59:13;23.60;90.40
947;DHT22;460;48.734;9.152;2023-09-07T10:01:44;23.50;90.30
947;DHT22;460;48.734;9.152;2023-09-07T10:04:13;23.70;91.00
947;DHT22;460;48.734;9.152;2023-09-07T10:06:50;23.70;90.50
947;DHT22;460;48.734;9.152;2023-09-07T10:09:18;23.80;90.40
947;DHT22;460;48.734;9.152;2023-09-07T10:11:51;24.00;90.00
947;DHT22;460;48.734;9.152;2023-09-07T10:14:20;24.00;90.40
947;DHT22;460;48.734;9.152;2023-09-07T10:16:48;24.10;90.60
947;DHT22;460;48.734;9.152;2023-09-07T10:19:18;24.00;90.20
947;DHT22;460;48.734;9.152;2023-09-07T10:21:45;23.90;91.10
947;DHT22;460;48.734;9.152;2023-09-07T10:24:23;24.20;90.50
947;DHT22;460;48.734;9.152;2023-09-07T10:26:56;24.30;90.90
947;DHT22;460;48.734;9.152;2023-09-07T10:29:25;24.40;90.70
947;DHT22;460;48.734;9.152;2023-09-07T10:31:52;24.50;90.10
947;DHT22;460;48.734;9.152;2023-09-07T10:34:19;24.60;90.50
947;DHT22;460;48.734;9.152;2023-09-07T10:36:48;24.70;89.60
947;DHT22;460;48.734;9.152;2023-09-07T10:39:18;24.80;90.00
947;DHT22;460;48.734;9.152;2023-09-07T10:41:45;24.80;89.20
947;DHT22;460;48.734;9.152;2023-09-07T10:44:12;25.00;90.20
947;DHT22;460;48.734;9.152;2023-09-07T10:46:40;24.90;90.00
947;DHT22;460;48.734;9.152;2023-09-07T10:49:08;25.00;90.30
947;DHT22;460;48.734;9.152;2023-09-07T10:51:41;25.10;90.60
947;DHT22;460;48.734;9.152;2023-09-07T10:54:22;25.20;88.60
947;DHT22;460;48.734;9.152;2023-09-07T10:56:50;25.20;88.10
947;DHT22;460;48.734;9.152;2023-09-07T10:59:17;25.40;88.50
947;DHT22;460;48.734;9.152;2023-09-07T11:01:45;25.50;87.50
947;DHT22;460;48.734;9.152;2023-09-07T11:04:13;25.50;86.00
947;DHT22;460;48.734;9.152;2023-09-07T11:06:42;25.50;86.40
947;DHT22;460;48.734;9.152;2023-09-07T11:09:10;25.60;85.60
947;DHT22;460;48.734;9.152;2023-09-07T11:11:37;25.80;85.50
947;DHT22;460;48.734;9.152;2023-09-07T11:14:04;25.50;86.70
947;DHT22;460;48.734;9.152;2023-09-07T11:16:32;25.70;86.60
947;DHT22;460;48.734;9.152;2023-09-07T11:19:04;25.80;84.10
947;DHT22;460;48.734;9.152;2023-09-07T11:21:31;25.90;83.90
947;DHT22;460;48.734;9.152;2023-09-07T11:24:00;26.00;85.10
947;DHT22;460;48.734;9.152;2023-09-07T11:26:39;26.20;85.30
947;DHT22;460;48.734;9.152;2023-09-07T11:29:06;26.10;85.00
947;DHT22;460;48.734;9.152;2023-09-07T11:31:33;26.30;84.30
947;DHT22;460;48.734;9.152;2023-09-07T11:34:00;26.60;83.10
947;DHT22;460;48.734;9.152;2023-09-07T11:36:28;26.70;82.60
947;DHT22;460;48.734;9.152;2023-09-07T11:38:55;26.90;81.30
947;DHT22;460;48.734;9.152;2023-09-07T11:41:23;27.00;82.00
947;DHT22;460;48.734;9.152;2023-09-07T11:43:49;27.30;81.50
947;DHT22;460;48.734;9.152;2023-09-07T11:46:18;27.50;80.70
947;DHT22;460;48.734;9.152;2023-09-07T11:48:45;27.30;79.40
947;DHT22;460;48.734;9.152;2023-09-07T11:51:12;27.40;79.80
947;DHT22;460;48.734;9.152;2023-09-07T11:53:40;27.40;79.10
947;DHT22;460;48.734;9.152;2023-09-07T11:56:07;27.20;79.00
947;DHT22;460;48.734;9.152;2023-09-07T11:58:33;26.90;78.60
947;DHT22;460;48.734;9.152;2023-09-07T12:01:00;26.80;79.40
947;DHT22;460;48.734;9.152;2023-09-07T12:03:27;26.80;79.00
947;DHT22;460;48.734;9.152;2023-09-07T12:05:55;26.60;79.50
947;DHT22;460;48.734;9.152;2023-09-07T12:08:22;26.60;80.00
947;DHT22;460;48.734;9.152;2023-09-07T12:10:50;26.50;81.30
947;DHT22;460;48.734;9.152;2023-09-07T12:13:17;26.40;81.60
947;DHT22;460;48.734;9.152;2023-09-07T12:15:44;26.10;83.70
947;DHT22;460;48.734;9.152;2023-09-07T12:18:11;26.10;84.20
947;DHT22;460;48.734;9.152;2023-09-07T12:20:37;26.30;82.50
947;DHT22;460;48.734;9.152;2023-09-07T12:23:04;26.40;80.10
947;DHT22;460;48.734;9.152;2023-09-07T12:25:31;26.30;82.30
947;DHT22;460;48.734;9.152;2023-09-07T12:27:59;26.40;81.80
947;DHT22;460;48.734;9.152;2023-09-07T12:30:26;26.30;81.30
947;DHT22;460;48.734;9.152;2023-09-07T12:32:54;26.30;81.70
947;DHT22;460;48.734;9.152;2023-09-07T12:35:21;26.50;82.50
947;DHT22;460;48.734;9.152;2023-09-07T12:37:47;26.60;80.50
947;DHT22;460;48.734;9.152;2023-09-07T12:40:14;26.50;80.20
947;DHT22;460;48.734;9.152;2023-09-07T12:42:41;26.50;81.10
947;DHT22;460;48.734;9.152;2023-09-07T12:45:10;26.50;80.40
947;DHT22;460;48.734;9.152;2023-09-07T12:47:39;26.50;80.50
947;DHT22;460;48.734;9.152;2023-09-07T12:50:07;26.60;80.70
947;DHT22;460;48.734;9.152;2023-09-07T12:52:34;26.60;79.70
947;DHT22;460;48.734;9.152;2023-09-07T12:55:03;26.60;79.90
947;DHT22;460;48.734;9.152;2023-09-07T12:57:33;26.70;79.20
947;DHT22;460;48.734;9.152;2023-09-07T13:00:00;26.60;80.50
947;DHT22;460;48.734;9.152;2023-09-07T13:02:28;26.60;79.30
947;DHT22;460;48.734;9.152;2023-09-07T13:04:55;26.60;79.70
947;DHT22;460;48.734;9.152;2023-09-07T13:07:22;26.70;81.40
947;DHT22;460;48.734;9.152;2023-09-07T13:09:48;26.90;80.80
947;DHT22;460;48.734;9.152;2023-09-07T13:12:15;26.80;81.20
947;DHT22;460;48.734;9.152;2023-09-07T13:14:42;26.90;81.70
947;DHT22;460;48.734;9.152;2023-09-07T13:17:12;27.40;80.90
947;DHT22;460;48.734;9.152;2023-09-07T13:19:41;28.90;76.40
947;DHT22;460;48.734;9.152;2023-09-07T13:22:09;30.80;72.10
947;DHT22;460;48.734;9.152;2023-09-07T13:24:36;32.70;68.50
947;DHT22;460;48.734;9.152;2023-09-07T13:27:03;34.30;64.00
947;DHT22;460;48.734;9.152;2023-09-07T13:29:30;35.10;57.70
947;DHT22;460;48.734;9.152;2023-09-07T13:31:57;35.90;58.90
947;DHT22;460;48.734;9.152;2023-09-07T13:34:25;36.60;56.50
947;DHT22;460;48.734;9.152;2023-09-07T13:36:54;36.80;54.90
947;DHT22;460;48.734;9.152;2023-09-07T13:39:21;36.50;54.90
947;DHT22;460;48.734;9.152;2023-09-07T13:41:48;36.40;53.80
947;DHT22;460;48.734;9.152;2023-09-07T13:44:15;35.90;53.80
947;DHT22;460;48.734;9.152;2023-09-07T13:46:43;35.30;54.00
947;DHT22;460;48.734;9.152;2023-09-07T13:49:10;35.00;54.10
947;DHT22;460;48.734;9.152;2023-09-07T13:51:37;35.40;54.10
947;DHT22;460;48.734;9.152;2023-09-07T13:54:07;36.10;53.40
947;DHT22;460;48.734;9.152;2023-09-07T13:56:34;36.90;51.80
947;DHT22;460;48.734;9.152;2023-09-07T13:59:03;37.60;52.50
947;DHT22;460;48.734;9.152;2023-09-07T14:01:30;38.20;50.70
947;DHT22;460;48.734;9.152;2023-09-07T14:03:57;38.60;49.60
947;DHT22;460;48.734;9.152;2023-09-07T14:06:24;38.80;49.20
947;DHT22;460;48.734;9.152;2023-09-07T14:08:51;38.60;50.10
947;DHT22;460;48.734;9.152;2023-09-07T14:11:19;38.60;48.50
947;DHT22;460;48.734;9.152;2023-09-07T14:13:48;38.10;49.20
947;DHT22;460;48.734;9.152;2023-09-07T14:16:17;37.70;49.20
947;DHT22;460;48.734;9.152;2023-09-07T14:18:44;37.40;49.00
947;DHT22;460;48.734;9.152;2023-09-07T14:21:12;36.40;48.90
947;DHT22;460;48.734;9.152;2023-09-07T14:23:39;35.50;50.40
947;DHT22;460;48.734;9.152;2023-09-07T14:26:06;35.20;51.20
947;DHT22;460;48.734;9.152;2023-09-07T14:28:34;35.30;50.60
947;DHT22;460;48.734;9.152;2023-09-07T14:31:01;35.20;51.20
947;DHT22;460;48.734;9.152;2023-09-07T14:33:29;35.40;50.50
947;DHT22;460;48.734;9.152;2023-09-07T14:35:57;35.10;50.60
947;DHT22;460;48.734;9.152;2023-09-07T14:38:24;34.80;51.10
947;DHT22;460;48.734;9.152;2023-09-07T14:40:52;34.20;51.60
947;DHT22;460;48.734;9.152;2023-09-07T14:43:20;33.40;52.80
947;DHT22;460;48.734;9.152;2023-09-07T14:45:48;32.30;53.30
947;DHT22;460;48.734;9.152;2023-09-07T14:48:15;31.50;55.10
947;DHT22;460;48.734;9.152;2023-09-07T14:50:42;31.00;56.50
947;DHT22;460;48.734;9.152;2023-09-07T14:53:09;30.60;56.20
947;DHT22;460;48.734;9.152;2023-09-07T14:55:35;30.30;56.80
947;DHT22;460;48.734;9.152;2023-09-07T14:58:02;30.10;57.40
947;DHT22;460;48.734;9.152;2023-09-07T15:00:29;29.80;59.00
947;DHT22;460;48.734;9.152;2023-09-07T15:02:59;29.50;58.60
947;DHT22;460;48.734;9.152;2023-09-07T15:05:26;29.30;58.60
947;DHT22;460;48.734;9.152;2023-09-07T15:07:54;29.10;59.00
947;DHT22;460;48.734;9.152;2023-09-07T15:10:21;28.90;59.50
947;DHT22;460;48.734;9.152;2023-09-07T15:12:48;28.80;59.70
947;DHT22;460;48.734;9.152;2023-09-07T15:15:16;28.70;60.50
947;DHT22;460;48.734;9.152;2023-09-07T15:17:47;28.60;59.70
947;DHT22;460;48.734;9.152;2023-09-07T15:20:16;28.50;60.20
947;DHT22;460;48.734;9.152;2023-09-07T15:22:42;28.40;62.50
947;DHT22;460;48.734;9.152;2023-09-07T15:25:09;28.30;61.20
947;DHT22;460;48.734;9.152;2023-09-07T15:27:36;28.20;62.10
947;DHT22;460;48.734;9.152;2023-09-07T15:30:04;28.00;62.80
947;DHT22;460;48.734;9.152;2023-09-07T15:32:31;28.00;61.80
947;DHT22;460;48.734;9.152;2023-09-07T15:34:58;27.90;61.30
947;DHT22;460;48.734;9.152;2023-09-07T15:37:27;27.90;61.80
947;DHT22;460;48.734;9.152;2023-09-07T15:39:54;27.70;65.00
947;DHT22;460;48.734;9.152;2023-09-07T15:42:21;27.50;64.40
947;DHT22;460;48.734;9.152;2023-09-07T15:44:48;27.50;63.90
947;DHT22;460;48.734;9.152;2023-09-07T15:47:15;27.40;64.80
947;DHT22;460;48.734;9.152;2023-09-07T15:49:42;27.50;63.40
947;DHT22;460;48.734;9.152;2023-09-07T15:52:09;27.70;63.80
947;DHT22;460;48.734;9.152;2023-09-07T15:54:38;27.60;63.70
947;DHT22;460;48.734;9.152;2023-09-07T15:57:05;27.50;63.70
947;DHT22;460;48.734;9.152;2023-09-07T15:59:32;27.50;64.30
947;DHT22;460;48.734;9.152;2023-09-07T16:01:58;27.50;62.90
947;DHT22;460;48.734;9.152;2023-09-07T16:04:25;27.40;63.40
947;DHT22;460;48.734;9.152;2023-09-07T16:06:52;27.30;63.40
947;DHT22;460;48.734;9.152;2023-09-07T16:09:19;27.20;64.00
947;DHT22;460;48.734;9.152;2023-09-07T16:11:47;27.10;63.10
947;DHT22;460;48.734;9.152;2023-09-07T16:14:14;27.00;64.40
947;DHT22;460;48.734;9.152;2023-09-07T16:16:42;26.70;64.80
947;DHT22;460;48.734;9.152;2023-09-07T16:19:09;26.70;64.70
947;DHT22;460;48.734;9.152;2023-09-07T16:21:36;26.60;65.30
947;DHT22;460;48.734;9.152;2023-09-07T16:24:03;26.60;64.60
947;DHT22;460;48.734;9.152;2023-09-07T16:26:30;26.60;64.90
947;DHT22;460;48.734;9.152;2023-09-07T16:28:59;26.50;64.30
947;DHT22;460;48.734;9.152;2023-09-07T16:31:26;26.50;63.70
947;DHT22;460;48.734;9.152;2023-09-07T16:33:54;26.40;64.00
947;DHT22;460;48.734;9.152;2023-09-07T16:36:20;26.30;64.00